createdAt,value
2023-02-26T00:01:31.678Z,93820.75
2023-02-26T00:04:02.330Z,93827.75
2023-02-26T00:06:32.620Z,93817.41
2023-02-26T00:09:00.011Z,93822.44
2023-02-26T00:11:27.844Z,93841.13
2023-02-26T00:13:55.166Z,93835.25
2023-02-26T00:16:35.079Z,93825.41
2023-02-26T00:19:06.429Z,93836.19
2023-02-26T00:21:36.935Z,93833.16
2023-02-26T00:24:06.637Z,93840.91
2023-02-26T00:26:35.599Z,93840.91
2023-02-26T00:29:04.251Z,93829.97
2023-02-26T00:31:31.618Z,93836.97
2023-02-26T00:33:59.143Z,93844.53
2023-02-26T00:36:41.189Z,93840.16
2023-02-26T00:39:21.846Z,93839.91
2023-02-26T00:41:48.881Z,93852.25
2023-02-26T00:44:16.068Z,93850.47
2023-02-26T00:46:48.755Z,93864.84
2023-02-26T00:49:33.868Z,93859.44
2023-02-26T00:52:06.076Z,93854.91
2023-02-26T00:54:32.814Z,93859.38
2023-02-26T00:57:00.311Z,93868.75
2023-02-26T00:59:27.134Z,93853.88
2023-02-26T01:01:54.070Z,93858.91
2023-02-26T01:04:23.582Z,93855.03
2023-02-26T01:06:56.430Z,93859.47
2023-02-26T01:09:33.447Z,93849.88
2023-02-26T01:12:09.730Z,93860.88
2023-02-26T01:14:37.234Z,93851.75
2023-02-26T01:17:18.640Z,93854.22
2023-02-26T01:20:05.510Z,93847.97
2023-02-26T01:22:37.824Z,93851.72
2023-02-26T01:25:15.893Z,93854.66
2023-02-26T01:27:42.865Z,93848.13
2023-02-26T01:30:10.598Z,93851.03
2023-02-26T01:32:51.209Z,93850.56
2023-02-26T01:35:53.956Z,93842.81
2023-02-26T01:38:52.632Z,93839.53
2023-02-26T01:41:46.284Z,93829.47
2023-02-26T01:44:40.912Z,93841.91
2023-02-26T01:47:25.365Z,93838.72
2023-02-26T01:49:52.512Z,93839.91
2023-02-26T01:52:49.829Z,93834.84
2023-02-26T01:55:21.542Z,93837.66
2023-02-26T01:57:50.009Z,93835.56
2023-02-26T02:00:17.258Z,93843.06
2023-02-26T02:02:44.317Z,93844.25
2023-02-26T02:05:31.998Z,93842.13
2023-02-26T02:07:59.774Z,93841.19
2023-02-26T02:10:27.560Z,93841.19
2023-02-26T02:13:11.613Z,93842.25
2023-02-26T02:16:01.337Z,93848.22
2023-02-26T02:19:00.908Z,93848.47
2023-02-26T02:22:09.496Z,93843.06
2023-02-26T02:25:04.169Z,93855.00
2023-02-26T02:28:09.063Z,93853.38
2023-02-26T02:30:56.357Z,93862.16
2023-02-26T02:33:34.985Z,93857.13
2023-02-26T02:36:19.411Z,93862.28
2023-02-26T02:38:57.540Z,93863.91
2023-02-26T02:41:34.432Z,93861.69
2023-02-26T02:44:07.481Z,93863.44
2023-02-26T02:46:38.298Z,93870.13
2023-02-26T02:49:18.336Z,93863.44
2023-02-26T02:51:52.448Z,93870.38
2023-02-26T02:54:35.162Z,93867.53
2023-02-26T02:57:16.130Z,93864.56
2023-02-26T02:59:47.208Z,93867.19
2023-02-26T03:02:19.941Z,93861.53
2023-02-26T03:04:46.791Z,93862.53
2023-02-26T03:07:13.686Z,93855.25
2023-02-26T03:09:40.607Z,93873.88
2023-02-26T03:12:07.377Z,93873.06
2023-02-26T03:14:34.693Z,93874.56
2023-02-26T03:17:34.018Z,93874.25
2023-02-26T03:20:19.680Z,93881.13
2023-02-26T03:23:07.579Z,93885.28
2023-02-26T03:25:48.550Z,93880.31
2023-02-26T03:28:32.201Z,93886.78
2023-02-26T03:31:15.892Z,93887.34
2023-02-26T03:33:54.610Z,93891.44
2023-02-26T03:36:38.192Z,93899.78
2023-02-26T03:39:27.492Z,93897.53
2023-02-26T03:42:38.535Z,93897.91
2023-02-26T03:45:11.194Z,93891.59
2023-02-26T03:47:40.842Z,93899.53
2023-02-26T03:50:31.469Z,93907.53
2023-02-26T03:53:00.110Z,93906.31
2023-02-26T03:55:39.126Z,93902.34
2023-02-26T03:58:05.926Z,93899.97
2023-02-26T04:00:34.561Z,93914.88
2023-02-26T04:03:25.245Z,93907.63
2023-02-26T04:05:52.922Z,93909.84
2023-02-26T04:08:22.949Z,93912.19
2023-02-26T04:10:58.352Z,93921.78
2023-02-26T04:13:26.386Z,93923.16
2023-02-26T04:15:53.101Z,93923.41
2023-02-26T04:18:19.840Z,93930.72
2023-02-26T04:20:46.540Z,93918.25
2023-02-26T04:23:13.287Z,93920.56
2023-02-26T04:25:40.369Z,93921.03
2023-02-26T04:28:07.199Z,93924.06
2023-02-26T04:30:34.273Z,93918.47
2023-02-26T04:33:01.023Z,93920.63
2023-02-26T04:35:27.980Z,93915.25
2023-02-26T04:37:54.707Z,93912.78
2023-02-26T04:40:23.725Z,93929.97
2023-02-26T04:42:50.719Z,93926.25
2023-02-26T04:45:17.934Z,93927.16
2023-02-26T04:47:44.725Z,93926.25
2023-02-26T04:50:12.160Z,93933.00
2023-02-26T04:52:38.883Z,93937.00
2023-02-26T04:55:07.587Z,93929.16
2023-02-26T04:57:34.765Z,93936.91
2023-02-26T05:00:01.603Z,93938.31
2023-02-26T05:02:28.354Z,93940.28
2023-02-26T05:04:55.089Z,93934.38
2023-02-26T05:07:22.104Z,93945.03
2023-02-26T05:09:48.869Z,93928.16
2023-02-26T05:12:16.220Z,93939.28
2023-02-26T05:14:42.984Z,93957.31
2023-02-26T05:17:09.939Z,93961.50
2023-02-26T05:19:36.679Z,93959.72
2023-02-26T05:22:03.469Z,93955.81
2023-02-26T05:24:30.180Z,93958.72
2023-02-26T05:26:56.910Z,93961.81
2023-02-26T05:29:23.730Z,93963.81
2023-02-26T05:31:50.584Z,93971.44
2023-02-26T05:34:17.369Z,93977.81
2023-02-26T05:36:44.081Z,93961.38
2023-02-26T05:39:10.938Z,93968.59
2023-02-26T05:41:37.672Z,93971.34
2023-02-26T05:44:04.504Z,93971.16
2023-02-26T05:46:31.274Z,93974.78
2023-02-26T05:48:57.986Z,93977.94
2023-02-26T05:51:24.716Z,93980.75
2023-02-26T05:53:51.485Z,93969.66
2023-02-26T05:56:18.244Z,93992.34
2023-02-26T05:58:45.411Z,93999.56
2023-02-26T06:01:12.163Z,93987.81
2023-02-26T06:03:44.144Z,93989.25
2023-02-26T06:06:12.742Z,94002.03
2023-02-26T06:08:39.523Z,94004.72
2023-02-26T06:11:06.534Z,94011.97
2023-02-26T06:13:33.452Z,94026.97
2023-02-26T06:16:00.237Z,94022.25
2023-02-26T06:18:27.099Z,94021.53
2023-02-26T06:20:54.003Z,94026.88
2023-02-26T06:23:21.204Z,94031.59
2023-02-26T06:25:47.921Z,94032.53
2023-02-26T06:28:14.652Z,94030.47
2023-02-26T06:30:41.693Z,94036.63
2023-02-26T06:33:08.461Z,94036.63
2023-02-26T06:35:35.235Z,94039.63
2023-02-26T06:38:02.009Z,94044.66
2023-02-26T06:40:29.056Z,94032.63
2023-02-26T06:42:55.822Z,94048.09
2023-02-26T06:45:25.254Z,94045.66
2023-02-26T06:47:52.169Z,94047.91
2023-02-26T06:50:19.019Z,94049.53
2023-02-26T06:52:45.822Z,94057.75
2023-02-26T06:55:12.695Z,94060.69
2023-02-26T06:57:39.727Z,94043.91
2023-02-26T07:00:08.712Z,94066.22
2023-02-26T07:02:35.631Z,94054.19
2023-02-26T07:05:02.468Z,94065.59
2023-02-26T07:07:29.199Z,94065.91
2023-02-26T07:09:55.983Z,94070.19
2023-02-26T07:12:22.706Z,94065.19
2023-02-26T07:14:49.507Z,94059.00
2023-02-26T07:17:20.613Z,94061.28
2023-02-26T07:19:52.409Z,94067.88
2023-02-26T07:22:22.086Z,94069.84
2023-02-26T07:24:50.081Z,94069.94
2023-02-26T07:27:17.057Z,94072.00
2023-02-26T07:29:43.767Z,94074.91
2023-02-26T07:32:10.535Z,94075.59
2023-02-26T07:34:37.315Z,94079.94
2023-02-26T07:37:04.111Z,94082.53
2023-02-26T07:39:31.127Z,94066.16
2023-02-26T07:41:57.864Z,94085.94
2023-02-26T07:44:24.653Z,94097.34
2023-02-26T07:46:51.377Z,94093.00
2023-02-26T07:49:18.245Z,94094.78
2023-02-26T07:51:46.085Z,94083.75
2023-02-26T07:54:13.498Z,94081.63
2023-02-26T07:56:41.436Z,94100.38
2023-02-26T07:59:08.373Z,94094.31
2023-02-26T08:01:36.004Z,94101.94
2023-02-26T08:04:03.084Z,94089.06
2023-02-26T08:06:30.287Z,94093.25
2023-02-26T08:08:57.056Z,94084.91
2023-02-26T08:11:23.792Z,94088.34
2023-02-26T08:13:50.644Z,94091.59
2023-02-26T08:16:17.548Z,94092.84
2023-02-26T08:18:44.350Z,94094.59
2023-02-26T08:21:11.771Z,94094.69
2023-02-26T08:23:38.759Z,94100.69
2023-02-26T08:26:09.220Z,94108.53
2023-02-26T08:28:37.059Z,94099.22
2023-02-26T08:31:04.297Z,94101.25
2023-02-26T08:33:31.653Z,94101.88
2023-02-26T08:35:59.228Z,94101.25
2023-02-26T08:38:28.010Z,94096.56
2023-02-26T08:40:55.235Z,94080.22
2023-02-26T08:43:22.029Z,94093.91
2023-02-26T08:45:49.758Z,94093.91
2023-02-26T08:48:16.573Z,94085.16
2023-02-26T08:50:43.444Z,94091.34
2023-02-26T08:53:10.151Z,94102.16
2023-02-26T08:55:37.251Z,94106.03
2023-02-26T08:58:04.704Z,94100.00
2023-02-26T09:00:31.881Z,94099.16
2023-02-26T09:02:58.618Z,94091.84
2023-02-26T09:05:25.471Z,94089.50
2023-02-26T09:07:52.250Z,94116.34
2023-02-26T09:10:19.086Z,94116.44
2023-02-26T09:12:46.992Z,94124.75
2023-02-26T09:15:14.850Z,94118.78
2023-02-26T09:17:42.541Z,94121.63
2023-02-26T09:20:10.932Z,94123.16
2023-02-26T09:22:38.116Z,94117.16
2023-02-26T09:25:06.285Z,94126.63
2023-02-26T09:27:34.297Z,94124.25
2023-02-26T09:30:01.200Z,94130.13
2023-02-26T09:32:28.069Z,94142.94
2023-02-26T09:34:54.836Z,94131.72
2023-02-26T09:37:21.696Z,94144.41
2023-02-26T09:39:48.423Z,94141.31
2023-02-26T09:42:45.718Z,94142.97
2023-02-26T09:45:38.669Z,94140.41
2023-02-26T09:48:06.984Z,94153.09
2023-02-26T09:50:52.561Z,94145.06
2023-02-26T09:53:31.612Z,94147.94
2023-02-26T09:56:20.125Z,94154.22
2023-02-26T09:58:47.382Z,94142.91
2023-02-26T10:01:32.627Z,94151.03
2023-02-26T10:04:12.061Z,94142.31
2023-02-26T10:07:11.160Z,94154.50
2023-02-26T10:09:49.916Z,94141.88
2023-02-26T10:12:21.723Z,94135.94
2023-02-26T10:15:16.213Z,94134.69
2023-02-26T10:18:07.395Z,94131.09
2023-02-26T10:20:59.200Z,94145.25
2023-02-26T10:24:04.567Z,94135.00
2023-02-26T10:26:40.753Z,94131.84
2023-02-26T10:29:36.981Z,94129.06
2023-02-26T10:32:46.880Z,94134.22
2023-02-26T10:35:19.000Z,94138.63
2023-02-26T10:37:56.542Z,94145.88
2023-02-26T10:41:09.336Z,94142.69
2023-02-26T10:43:40.613Z,94143.09
2023-02-26T10:46:23.272Z,94143.44
2023-02-26T10:49:04.218Z,94145.66
2023-02-26T10:51:39.853Z,94158.56
2023-02-26T10:54:39.178Z,94154.28
2023-02-26T10:57:19.406Z,94154.19
2023-02-26T10:59:46.187Z,94149.97
2023-02-26T11:02:34.914Z,94155.44
2023-02-26T11:05:07.843Z,94148.97
2023-02-26T11:07:37.339Z,94149.13
2023-02-26T11:10:04.753Z,94153.34
2023-02-26T11:12:32.888Z,94172.28
2023-02-26T11:15:01.276Z,94167.38
2023-02-26T11:17:32.569Z,94166.22
2023-02-26T11:20:05.456Z,94178.06
2023-02-26T11:22:37.356Z,94176.66
2023-02-26T11:25:05.502Z,94168.66
2023-02-26T11:27:37.364Z,94181.78
2023-02-26T11:30:18.002Z,94177.13
2023-02-26T11:32:46.713Z,94180.88
2023-02-26T11:35:15.580Z,94186.91
2023-02-26T11:37:49.155Z,94181.72
2023-02-26T11:40:34.477Z,94184.28
2023-02-26T11:43:06.912Z,94170.66
2023-02-26T11:45:37.284Z,94167.13
2023-02-26T11:48:14.992Z,94181.13
2023-02-26T11:50:46.800Z,94163.84
2023-02-26T11:53:25.705Z,94175.28
2023-02-26T11:55:54.140Z,94191.69
2023-02-26T11:58:24.572Z,94186.13
2023-02-26T12:00:59.011Z,94203.81
2023-02-26T12:03:34.902Z,94194.44
2023-02-26T12:06:02.898Z,94200.47
2023-02-26T12:08:42.333Z,94191.13
2023-02-26T12:11:43.947Z,94183.47
2023-02-26T12:14:26.214Z,94189.31
2023-02-26T12:17:33.174Z,94198.78
2023-02-26T12:20:20.091Z,94194.25
2023-02-26T12:23:07.973Z,94189.72
2023-02-26T12:26:08.682Z,94179.50
2023-02-26T12:29:18.443Z,94184.47
2023-02-26T12:32:20.342Z,94174.16
2023-02-26T12:35:12.508Z,94166.78
2023-02-26T12:37:57.190Z,94156.31
2023-02-26T12:41:09.064Z,94176.78
2023-02-26T12:43:49.370Z,94191.22
2023-02-26T12:46:46.684Z,94195.34
2023-02-26T12:49:35.158Z,94191.34
2023-02-26T12:52:20.037Z,94192.66
2023-02-26T12:55:37.999Z,94191.94
2023-02-26T12:58:44.506Z,94195.47
2023-02-26T13:01:35.853Z,94195.81
2023-02-26T13:04:23.483Z,94200.28
2023-02-26T13:07:36.435Z,94202.63
2023-02-26T13:10:33.144Z,94192.75
2023-02-26T13:13:44.991Z,94207.66
2023-02-26T13:16:47.345Z,94189.94
2023-02-26T13:19:31.100Z,94188.16
2023-02-26T13:22:21.880Z,94185.25
2023-02-26T13:25:12.968Z,94198.38
2023-02-26T13:27:41.503Z,94194.53
2023-02-26T13:30:37.343Z,94193.34
2023-02-26T13:33:04.547Z,94177.00
2023-02-26T13:35:38.912Z,94192.00
2023-02-26T13:38:33.071Z,94203.78
2023-02-26T13:41:09.886Z,94212.50
2023-02-26T13:44:04.180Z,94203.31
2023-02-26T13:47:05.843Z,94218.75
2023-02-26T13:49:57.892Z,94204.25
2023-02-26T13:52:31.531Z,94202.69
2023-02-26T13:54:59.552Z,94208.50
2023-02-26T13:57:54.224Z,94197.00
2023-02-26T14:00:37.439Z,94200.06
2023-02-26T14:03:32.580Z,94194.38
2023-02-26T14:06:26.700Z,94195.19
2023-02-26T14:08:57.530Z,94197.72
2023-02-26T14:11:34.875Z,94205.31
2023-02-26T14:14:22.295Z,94212.97
2023-02-26T14:17:09.435Z,94203.19
2023-02-26T14:20:01.954Z,94209.44
2023-02-26T14:22:31.646Z,94216.22
2023-02-26T14:25:13.101Z,94219.28
2023-02-26T14:27:42.970Z,94224.25
2023-02-26T14:30:09.673Z,94234.03
2023-02-26T14:32:48.496Z,94247.09
2023-02-26T14:35:26.558Z,94242.97
2023-02-26T14:38:03.777Z,94243.41
2023-02-26T14:40:40.078Z,94237.06
2023-02-26T14:43:16.964Z,94236.97
2023-02-26T14:45:46.058Z,94242.84
2023-02-26T14:48:19.037Z,94243.16
2023-02-26T14:51:02.046Z,94251.63
2023-02-26T14:53:52.718Z,94262.13
2023-02-26T14:57:18.827Z,94258.81
2023-02-26T14:59:54.693Z,94249.66
2023-02-26T15:02:38.196Z,94261.56
2023-02-26T15:05:41.719Z,94244.13
2023-02-26T15:08:36.405Z,94280.13
2023-02-26T15:11:51.629Z,94263.81
2023-02-26T15:14:33.496Z,94267.78
2023-02-26T15:17:40.146Z,94266.38
2023-02-26T15:20:27.056Z,94266.63
2023-02-26T15:23:44.100Z,94267.28
2023-02-26T15:26:20.351Z,94279.41
2023-02-26T15:28:47.729Z,94299.19
2023-02-26T15:31:14.620Z,94283.81
2023-02-26T15:33:42.334Z,94305.13
2023-02-26T15:36:18.011Z,94301.81
2023-02-26T15:39:00.441Z,94295.16
2023-02-26T15:41:30.500Z,94256.13
2023-02-26T15:44:24.286Z,94294.63
2023-02-26T15:46:57.397Z,94292.44
2023-02-26T15:49:30.621Z,94294.34
2023-02-26T15:51:59.292Z,94295.75
2023-02-26T15:54:42.401Z,94289.75
2023-02-26T15:57:11.874Z,94294.00
2023-02-26T15:59:45.916Z,94297.47
2023-02-26T16:02:20.733Z,94288.75
2023-02-26T16:04:47.725Z,94307.44
2023-02-26T16:07:15.052Z,94306.09
2023-02-26T16:09:47.394Z,94315.16
2023-02-26T16:12:22.674Z,94319.84
2023-02-26T16:14:59.989Z,94329.50
2023-02-26T16:17:32.538Z,94330.25
2023-02-26T16:20:04.924Z,94322.53
2023-02-26T16:22:44.460Z,94330.78
2023-02-26T16:25:24.991Z,94334.78
2023-02-26T16:28:01.143Z,94326.91
2023-02-26T16:30:36.071Z,94333.81
2023-02-26T16:33:05.858Z,94334.53
2023-02-26T16:35:38.737Z,94334.66
2023-02-26T16:38:24.667Z,94353.78
2023-02-26T16:41:07.312Z,94355.34
2023-02-26T16:43:47.779Z,94360.03
2023-02-26T16:46:18.211Z,94368.34
2023-02-26T16:48:53.166Z,94374.16
2023-02-26T16:51:26.561Z,94371.13
2023-02-26T16:53:59.612Z,94366.34
2023-02-26T16:56:33.647Z,94379.53
2023-02-26T16:59:14.350Z,94386.66
2023-02-26T17:01:56.877Z,94388.28
2023-02-26T17:04:34.802Z,94394.50
2023-02-26T17:07:06.046Z,94393.25
2023-02-26T17:09:50.070Z,94394.88
2023-02-26T17:12:42.671Z,94396.97
2023-02-26T17:15:26.883Z,94396.31
2023-02-26T17:17:56.808Z,94409.13
2023-02-26T17:20:28.744Z,94415.63
2023-02-26T17:22:56.398Z,94425.28
2023-02-26T17:25:25.390Z,94411.66
2023-02-26T17:27:52.615Z,94428.16
2023-02-26T17:30:24.190Z,94411.75
2023-02-26T17:32:51.076Z,94421.88
2023-02-26T17:35:19.266Z,94437.34
2023-02-26T17:37:49.183Z,94435.81
2023-02-26T17:40:24.236Z,94442.44
2023-02-26T17:42:52.120Z,94431.78
2023-02-26T17:45:20.572Z,94440.34
2023-02-26T17:47:49.069Z,94447.59
2023-02-26T17:50:33.772Z,94438.47
2023-02-26T17:53:00.798Z,94436.19
2023-02-26T17:55:27.612Z,94434.16
2023-02-26T17:57:56.411Z,94447.56
2023-02-26T18:00:23.542Z,94449.31
2023-02-26T18:02:53.235Z,94458.31
2023-02-26T18:05:20.566Z,94446.16
2023-02-26T18:07:49.792Z,94437.47
2023-02-26T18:10:24.586Z,94448.19
2023-02-26T18:12:51.869Z,94439.50
2023-02-26T18:15:18.701Z,94430.00
2023-02-26T18:17:45.485Z,94437.03
2023-02-26T18:20:19.737Z,94415.75
2023-02-26T18:22:48.047Z,94450.22
2023-02-26T18:25:15.726Z,94443.13
2023-02-26T18:27:44.154Z,94453.72
2023-02-26T18:30:22.842Z,94452.00
2023-02-26T18:32:49.726Z,94443.22
2023-02-26T18:35:18.009Z,94432.91
2023-02-26T18:37:45.861Z,94418.06
2023-02-26T18:40:15.913Z,94438.91
2023-02-26T18:42:42.932Z,94449.50
2023-02-26T18:45:11.610Z,94442.81
2023-02-26T18:47:39.164Z,94442.00
2023-02-26T18:50:08.313Z,94454.25
2023-02-26T18:52:35.859Z,94463.25
2023-02-26T18:55:03.187Z,94450.97
2023-02-26T18:57:30.588Z,94450.03
2023-02-26T18:59:57.412Z,94470.78
2023-02-26T19:02:24.736Z,94472.94
2023-02-26T19:04:52.500Z,94469.97
2023-02-26T19:07:19.505Z,94454.84
2023-02-26T19:09:46.252Z,94487.97
2023-02-26T19:12:18.835Z,94473.75
2023-02-26T19:14:45.809Z,94494.56
2023-02-26T19:17:12.569Z,94481.91
2023-02-26T19:19:42.595Z,94499.06
2023-02-26T19:22:10.880Z,94506.59
2023-02-26T19:24:38.088Z,94507.72
2023-02-26T19:27:05.039Z,94507.13
2023-02-26T19:29:33.984Z,94519.47
2023-02-26T19:32:01.488Z,94507.47
2023-02-26T19:34:28.490Z,94514.22
2023-02-26T19:36:56.297Z,94513.81
2023-02-26T19:39:24.344Z,94527.44
2023-02-26T19:41:54.548Z,94533.66
2023-02-26T19:44:22.834Z,94503.84
2023-02-26T19:46:50.659Z,94532.47
2023-02-26T19:49:18.916Z,94540.91
2023-02-26T19:51:45.737Z,94534.88
2023-02-26T19:54:15.190Z,94519.78
2023-02-26T19:56:43.367Z,94546.22
2023-02-26T19:59:10.589Z,94536.50
2023-02-26T20:01:37.560Z,94528.59
2023-02-26T20:04:04.404Z,94538.56
2023-02-26T20:06:31.351Z,94537.88
2023-02-26T20:08:58.107Z,94528.97
2023-02-26T20:11:26.290Z,94544.31
2023-02-26T20:13:53.410Z,94544.19
2023-02-26T20:16:20.311Z,94542.34
2023-02-26T20:18:47.130Z,94559.84
2023-02-26T20:21:14.169Z,94557.13
2023-02-26T20:23:41.027Z,94553.50
2023-02-26T20:26:12.259Z,94566.25
2023-02-26T20:28:40.050Z,94560.75
2023-02-26T20:31:07.436Z,94564.13
2023-02-26T20:33:36.214Z,94557.22
2023-02-26T20:36:04.062Z,94568.66
2023-02-26T20:38:30.983Z,94571.31
2023-02-26T20:40:57.922Z,94564.75
2023-02-26T20:43:25.458Z,94583.78
2023-02-26T20:45:54.098Z,94584.75
2023-02-26T20:48:21.598Z,94568.47
2023-02-26T20:50:49.653Z,94554.84
2023-02-26T20:53:16.421Z,94573.13
2023-02-26T20:55:43.262Z,94563.56
2023-02-26T20:58:10.166Z,94562.22
2023-02-26T21:00:37.063Z,94552.34
2023-02-26T21:03:03.910Z,94592.59
2023-02-26T21:05:30.681Z,94577.69
2023-02-26T21:07:57.440Z,94572.78
2023-02-26T21:10:24.207Z,94578.06
2023-02-26T21:12:51.816Z,94566.75
2023-02-26T21:15:18.997Z,94577.50
2023-02-26T21:17:45.985Z,94572.00
2023-02-26T21:20:18.130Z,94565.50
2023-02-26T21:22:46.498Z,94576.34
2023-02-26T21:25:13.877Z,94585.25
2023-02-26T21:27:41.159Z,94566.63
2023-02-26T21:30:10.836Z,94579.75
2023-02-26T21:32:39.024Z,94569.28
2023-02-26T21:35:07.582Z,94569.13
2023-02-26T21:37:34.554Z,94570.81
2023-02-26T21:40:01.359Z,94586.75
2023-02-26T21:42:28.410Z,94581.59
2023-02-26T21:44:55.156Z,94575.69
2023-02-26T21:47:21.991Z,94566.88
2023-02-26T21:49:48.733Z,94578.31
2023-02-26T21:52:15.600Z,94572.78
2023-02-26T21:54:42.532Z,94566.16
2023-02-26T21:57:09.464Z,94565.34
2023-02-26T21:59:36.445Z,94573.16
2023-02-26T22:02:04.034Z,94578.56
2023-02-26T22:04:31.157Z,94572.22
2023-02-26T22:06:57.912Z,94563.50
2023-02-26T22:09:24.726Z,94579.59
2023-02-26T22:11:51.491Z,94578.84
2023-02-26T22:14:18.304Z,94559.81
2023-02-26T22:16:45.120Z,94582.53
2023-02-26T22:19:11.954Z,94585.94
2023-02-26T22:21:38.730Z,94570.75
2023-02-26T22:24:06.452Z,94591.00
2023-02-26T22:26:33.248Z,94572.59
2023-02-26T22:29:00.936Z,94581.59
2023-02-26T22:31:29.645Z,94598.09
2023-02-26T22:33:57.468Z,94580.25
2023-02-26T22:36:25.235Z,94596.88
2023-02-26T22:38:52.033Z,94564.69
2023-02-26T22:41:18.886Z,94562.25
2023-02-26T22:43:45.644Z,94584.63
2023-02-26T22:46:12.454Z,94574.50
2023-02-26T22:48:39.232Z,94584.69
2023-02-26T22:51:06.073Z,94585.66
2023-02-26T22:53:32.947Z,94583.28
2023-02-26T22:55:59.727Z,94599.66
2023-02-26T22:58:26.518Z,94582.28
2023-02-26T23:01:05.226Z,94576.22
2023-02-26T23:03:32.718Z,94585.69
2023-02-26T23:06:00.119Z,94577.88
2023-02-26T23:08:27.562Z,94585.59
2023-02-26T23:10:57.252Z,94579.31
2023-02-26T23:13:25.178Z,94552.56
2023-02-26T23:15:52.335Z,94568.22
2023-02-26T23:18:19.399Z,94578.03
2023-02-26T23:20:48.084Z,94589.19
2023-02-26T23:23:15.585Z,94587.91
2023-02-26T23:25:43.788Z,94597.84
2023-02-26T23:28:11.937Z,94588.28
2023-02-26T23:30:39.414Z,94581.66
2023-02-26T23:33:07.407Z,94561.41
2023-02-26T23:35:35.561Z,94597.84
2023-02-26T23:38:03.273Z,94600.06
2023-02-26T23:40:30.461Z,94584.97
2023-02-26T23:42:57.291Z,94590.03
2023-02-26T23:45:24.598Z,94584.22
2023-02-26T23:47:51.720Z,94556.44
2023-02-26T23:50:18.548Z,94583.69
2023-02-26T23:52:45.362Z,94571.59
2023-02-26T23:55:12.827Z,94595.28
2023-02-26T23:57:39.668Z,94590.88
